sensor_id;sensor_type;location;lat;lon;timestamp;pressure;altitude;pressure_sealevel;temperature;humidity
26775;BME280;14362;51.902;7.626;2023-04-22T00:01:12;100304.72;;;11.27;100.00
26775;BME280;14362;51.902;7.626;2023-04-22T00:05:14;100294.28;;;11.16;100.00
26775;BME280;14362;51.902;7.626;2023-04-22T00:09:17;100294.16;;;11.12;100.00
26775;BME280;14362;51.902;7.626;2023-04-22T00:13:19;100295.66;;;11.10;100.00
26775;BME280;14362;51.902;7.626;2023-04-22T00:17:21;100310.59;;;11.05;100.00
26775;BME280;14362;51.902;7.626;2023-04-22T00:21:23;100319.19;;;11.00;100.00
26775;BME280;14362;51.902;7.626;2023-04-22T00:25:26;100312.03;;;10.91;100.00
26775;BME280;14362;51.902;7.626;2023-04-22T00:29:27;100316.94;;;10.85;100.00
26775;BME280;14362;51.902;7.626;2023-04-22T00:33:30;100308.00;;;10.71;100.00
26775;BME280;14362;51.902;7.626;2023-04-22T00:37:32;100313.25;;;10.73;100.00
26775;BME280;14362;51.902;7.626;2023-04-22T00:41:34;100313.59;;;10.71;100.00
26775;BME280;14362;51.902;7.626;2023-04-22T00:45:36;100302.28;;;10.68;100.00
26775;BME280;14362;51.902;7.626;2023-04-22T00:49:38;100297.56;;;10.60;100.00
26775;BME280;14362;51.902;7.626;2023-04-22T00:53:40;100304.00;;;10.52;100.00
26775;BME280;14362;51.902;7.626;2023-04-22T00:57:41;100303.38;;;10.46;100.00
26775;BME280;14362;51.902;7.626;2023-04-22T01:01:43;100297.31;;;10.44;100.00
26775;BME280;14362;51.902;7.626;2023-04-22T01:05:47;100287.38;;;10.35;100.00
26775;BME280;14362;51.902;7.626;2023-04-22T01:09:48;100286.88;;;10.33;100.00
26775;BME280;14362;51.902;7.626;2023-04-22T01:13:50;100283.78;;;10.26;100.00
26775;BME280;14362;51.902;7.626;2023-04-22T01:17:52;100292.50;;;10.24;100.00
26775;BME280;14362;51.902;7.626;2023-04-22T01:21:55;100279.41;;;10.08;100.00
26775;BME280;14362;51.902;7.626;2023-04-22T01:25:59;100271.06;;;10.08;100.00
26775;BME280;14362;51.902;7.626;2023-04-22T01:30:01;100277.59;;;10.12;100.00
26775;BME280;14362;51.902;7.626;2023-04-22T01:34:03;100276.59;;;10.17;100.00
26775;BME280;14362;51.902;7.626;2023-04-22T01:38:06;100269.59;;;10.02;100.00
26775;BME280;14362;51.902;7.626;2023-04-22T01:42:10;100270.56;;;9.98;100.00
26775;BME280;14362;51.902;7.626;2023-04-22T01:46:11;100289.06;;;9.94;100.00
26775;BME280;14362;51.902;7.626;2023-04-22T01:50:13;100290.56;;;9.91;100.00
26775;BME280;14362;51.902;7.626;2023-04-22T01:54:14;100288.44;;;9.88;100.00
26775;BME280;14362;51.902;7.626;2023-04-22T01:58:18;100294.34;;;9.87;100.00
26775;BME280;14362;51.902;7.626;2023-04-22T02:02:19;100287.44;;;9.93;100.00
26775;BME280;14362;51.902;7.626;2023-04-22T02:06:21;100286.28;;;9.94;100.00
26775;BME280;14362;51.902;7.626;2023-04-22T02:10:22;100285.50;;;9.93;100.00
26775;BME280;14362;51.902;7.626;2023-04-22T02:14:25;100284.84;;;9.96;100.00
26775;BME280;14362;51.902;7.626;2023-04-22T02:18:26;100282.38;;;9.95;100.00
26775;BME280;14362;51.902;7.626;2023-04-22T02:22:28;100290.72;;;9.95;100.00
26775;BME280;14362;51.902;7.626;2023-04-22T02:26:29;100299.25;;;9.98;100.00
26775;BME280;14362;51.902;7.626;2023-04-22T02:30:32;100290.72;;;10.03;100.00
26775;BME280;14362;51.902;7.626;2023-04-22T02:34:33;100292.06;;;10.06;100.00
26775;BME280;14362;51.902;7.626;2023-04-22T02:38:36;100286.00;;;10.04;100.00
26775;BME280;14362;51.902;7.626;2023-04-22T02:42:38;100281.41;;;10.08;100.00
26775;BME280;14362;51.902;7.626;2023-04-22T02:46:40;100280.25;;;10.09;100.00
26775;BME280;14362;51.902;7.626;2023-04-22T02:50:42;100281.88;;;10.10;100.00
26775;BME280;14362;51.902;7.626;2023-04-22T02:54:43;100278.75;;;10.11;100.00
26775;BME280;14362;51.902;7.626;2023-04-22T02:58:45;100276.13;;;10.15;100.00
26775;BME280;14362;51.902;7.626;2023-04-22T03:02:47;100268.59;;;10.15;100.00
26775;BME280;14362;51.902;7.626;2023-04-22T03:06:49;100269.56;;;10.19;100.00
26775;BME280;14362;51.902;7.626;2023-04-22T03:10:50;100268.75;;;10.18;100.00
26775;BME280;14362;51.902;7.626;2023-04-22T03:14:52;100268.41;;;10.20;100.00
26775;BME280;14362;51.902;7.626;2023-04-22T03:18:54;100264.94;;;10.23;100.00
26775;BME280;14362;51.902;7.626;2023-04-22T03:22:56;100270.19;;;10.24;100.00
26775;BME280;14362;51.902;7.626;2023-04-22T03:26:57;100274.28;;;10.27;100.00
26775;BME280;14362;51.902;7.626;2023-04-22T03:30:59;100267.41;;;10.24;100.00
26775;BME280;14362;51.902;7.626;2023-04-22T03:35:01;100262.66;;;10.25;100.00
26775;BME280;14362;51.902;7.626;2023-04-22T03:39:03;100255.63;;;10.27;100.00
26775;BME280;14362;51.902;7.626;2023-04-22T03:43:05;100253.97;;;10.26;100.00
26775;BME280;14362;51.902;7.626;2023-04-22T03:47:06;100255.13;;;10.25;100.00
26775;BME280;14362;51.902;7.626;2023-04-22T03:51:09;100238.41;;;10.25;100.00
26775;BME280;14362;51.902;7.626;2023-04-22T03:55:10;100243.63;;;10.27;100.00
26775;BME280;14362;51.902;7.626;2023-04-22T03:59:13;100242.50;;;10.28;100.00
26775;BME280;14362;51.902;7.626;2023-04-22T04:03:14;100242.97;;;10.30;100.00
26775;BME280;14362;51.902;7.626;2023-04-22T04:07:17;100236.25;;;10.31;100.00
26775;BME280;14362;51.902;7.626;2023-04-22T04:11:18;100233.47;;;10.31;100.00
26775;BME280;14362;51.902;7.626;2023-04-22T04:15:20;100227.91;;;10.31;100.00
26775;BME280;14362;51.902;7.626;2023-04-22T04:19:21;100236.75;;;10.33;100.00
26775;BME280;14362;51.902;7.626;2023-04-22T04:23:24;100236.06;;;10.36;100.00
26775;BME280;14362;51.902;7.626;2023-04-22T04:27:29;100232.13;;;10.37;100.00
26775;BME280;14362;51.902;7.626;2023-04-22T04:31:30;100232.13;;;10.37;100.00
26775;BME280;14362;51.902;7.626;2023-04-22T04:35:33;100230.16;;;10.37;100.00
26775;BME280;14362;51.902;7.626;2023-04-22T04:39:36;100230.16;;;10.37;100.00
26775;BME280;14362;51.902;7.626;2023-04-22T04:43:38;100223.44;;;10.38;100.00
26775;BME280;14362;51.902;7.626;2023-04-22T04:47:39;100226.72;;;10.40;100.00
26775;BME280;14362;51.902;7.626;2023-04-22T04:51:41;100218.84;;;10.42;100.00
26775;BME280;14362;51.902;7.626;2023-04-22T04:55:44;100221.75;;;10.46;100.00
26775;BME280;14362;51.902;7.626;2023-04-22T04:59:45;100231.75;;;10.47;100.00
26775;BME280;14362;51.902;7.626;2023-04-22T05:03:46;100214.84;;;10.52;100.00
26775;BME280;14362;51.902;7.626;2023-04-22T05:07:48;100215.34;;;10.54;100.00
26775;BME280;14362;51.902;7.626;2023-04-22T05:11:52;100213.81;;;10.56;100.00
26775;BME280;14362;51.902;7.626;2023-04-22T05:15:53;100207.91;;;10.58;100.00
26775;BME280;14362;51.902;7.626;2023-04-22T05:19:54;100206.44;;;10.60;100.00
26775;BME280;14362;51.902;7.626;2023-04-22T05:23:56;100209.34;;;10.64;100.00
26775;BME280;14362;51.902;7.626;2023-04-22T05:27:59;100219.00;;;10.66;100.00
26775;BME280;14362;51.902;7.626;2023-04-22T05:32:00;100220.81;;;10.71;100.00
26775;BME280;14362;51.902;7.626;2023-04-22T05:36:02;100226.50;;;10.74;100.00
26775;BME280;14362;51.902;7.626;2023-04-22T05:40:04;100216.31;;;10.78;100.00
26775;BME280;14362;51.902;7.626;2023-04-22T05:44:07;100212.88;;;10.81;100.00
26775;BME280;14362;51.902;7.626;2023-04-22T05:48:08;100211.16;;;10.89;100.00
26775;BME280;14362;51.902;7.626;2023-04-22T05:52:10;100208.63;;;10.96;100.00
26775;BME280;14362;51.902;7.626;2023-04-22T05:56:11;100204.19;;;11.03;100.00
26775;BME280;14362;51.902;7.626;2023-04-22T06:00:15;100193.63;;;11.09;100.00
26775;BME280;14362;51.902;7.626;2023-04-22T06:04:17;100197.81;;;11.15;100.00
26775;BME280;14362;51.902;7.626;2023-04-22T06:08:19;100198.44;;;11.20;100.00
26775;BME280;14362;51.902;7.626;2023-04-22T06:12:20;100195.09;;;11.26;100.00
26775;BME280;14362;51.902;7.626;2023-04-22T06:16:23;100186.53;;;11.31;100.00
26775;BME280;14362;51.902;7.626;2023-04-22T06:20:24;100184.81;;;11.39;100.00
26775;BME280;14362;51.902;7.626;2023-04-22T06:24:26;100189.97;;;11.49;100.00
26775;BME280;14362;51.902;7.626;2023-04-22T06:28:27;100193.84;;;11.56;100.00
26775;BME280;14362;51.902;7.626;2023-04-22T06:32:30;100198.06;;;11.62;100.00
26775;BME280;14362;51.902;7.626;2023-04-22T06:36:31;100202.03;;;11.73;100.00
26775;BME280;14362;51.902;7.626;2023-04-22T06:40:36;100207.22;;;11.83;100.00
26775;BME280;14362;51.902;7.626;2023-04-22T06:44:37;100216.06;;;11.97;100.00
26775;BME280;14362;51.902;7.626;2023-04-22T06:48:40;100217.72;;;12.10;100.00
26775;BME280;14362;51.902;7.626;2023-04-22T06:52:42;100226.59;;;12.24;100.00
26775;BME280;14362;51.902;7.626;2023-04-22T06:56:43;100205.78;;;12.33;100.00
26775;BME280;14362;51.902;7.626;2023-04-22T07:00:44;100185.38;;;12.57;100.00
26775;BME280;14362;51.902;7.626;2023-04-22T07:04:47;100180.56;;;13.05;100.00
26775;BME280;14362;51.902;7.626;2023-04-22T07:08:49;100182.19;;;13.61;100.00
26775;BME280;14362;51.902;7.626;2023-04-22T07:12:50;100167.31;;;13.88;100.00
26775;BME280;14362;51.902;7.626;2023-04-22T07:16:52;100165.38;;;14.04;100.00
26775;BME280;14362;51.902;7.626;2023-04-22T07:20:55;100166.38;;;14.27;100.00
26775;BME280;14362;51.902;7.626;2023-04-22T07:24:56;100165.84;;;14.21;100.00
26775;BME280;14362;51.902;7.626;2023-04-22T07:28:57;100167.09;;;14.39;100.00
26775;BME280;14362;51.902;7.626;2023-04-22T07:32:59;100164.56;;;14.49;100.00
26775;BME280;14362;51.902;7.626;2023-04-22T07:37:02;100161.22;;;14.59;100.00
26775;BME280;14362;51.902;7.626;2023-04-22T07:41:04;100167.66;;;14.79;100.00
26775;BME280;14362;51.902;7.626;2023-04-22T07:45:06;100157.94;;;14.92;100.00
26775;BME280;14362;51.902;7.626;2023-04-22T07:49:07;100155.38;;;15.21;100.00
26775;BME280;14362;51.902;7.626;2023-04-22T07:53:10;100156.31;;;15.44;100.00
26775;BME280;14362;51.902;7.626;2023-04-22T07:57:12;100163.75;;;15.55;100.00
26775;BME280;14362;51.902;7.626;2023-04-22T08:01:14;100159.28;;;15.51;100.00
26775;BME280;14362;51.902;7.626;2023-04-22T08:05:15;100157.88;;;15.41;100.00
26775;BME280;14362;51.902;7.626;2023-04-22T08:09:18;100154.97;;;15.57;100.00
26775;BME280;14362;51.902;7.626;2023-04-22T08:13:19;100152.75;;;15.88;100.00
26775;BME280;14362;51.902;7.626;2023-04-22T08:17:21;100155.06;;;16.05;100.00
26775;BME280;14362;51.902;7.626;2023-04-22T08:21:22;100149.47;;;16.05;100.00
26775;BME280;14362;51.902;7.626;2023-04-22T08:25:25;100139.78;;;16.25;100.00
26775;BME280;14362;51.902;7.626;2023-04-22T08:29:26;100126.91;;;16.46;100.00
26775;BME280;14362;51.902;7.626;2023-04-22T08:33:28;100127.28;;;16.71;100.00
26775;BME280;14362;51.902;7.626;2023-04-22T08:37:29;100118.00;;;16.96;100.00
26775;BME280;14362;51.902;7.626;2023-04-22T08:41:33;100126.09;;;16.98;100.00
26775;BME280;14362;51.902;7.626;2023-04-22T08:45:38;100121.41;;;17.09;100.00
26775;BME280;14362;51.902;7.626;2023-04-22T08:49:41;100114.41;;;17.29;100.00
26775;BME280;14362;51.902;7.626;2023-04-22T08:53:42;100119.47;;;17.46;100.00
26775;BME280;14362;51.902;7.626;2023-04-22T08:57:46;100105.50;;;17.56;100.00
26775;BME280;14362;51.902;7.626;2023-04-22T09:01:51;100106.00;;;17.65;100.00
26775;BME280;14362;51.902;7.626;2023-04-22T09:05:53;100109.41;;;17.81;100.00
26775;BME280;14362;51.902;7.626;2023-04-22T09:09:56;100112.34;;;17.91;100.00
26775;BME280;14362;51.902;7.626;2023-04-22T09:13:59;100105.78;;;17.84;100.00
26775;BME280;14362;51.902;7.626;2023-04-22T09:18:02;100100.34;;;18.01;100.00
26775;BME280;14362;51.902;7.626;2023-04-22T09:22:04;100093.19;;;18.14;100.00
26775;BME280;14362;51.902;7.626;2023-04-22T09:26:09;100083.66;;;18.26;100.00
26775;BME280;14362;51.902;7.626;2023-04-22T09:30:12;100091.34;;;18.29;100.00
26775;BME280;14362;51.902;7.626;2023-04-22T09:34:14;100077.75;;;18.45;100.00
26775;BME280;14362;51.902;7.626;2023-04-22T09:38:15;100074.22;;;18.58;100.00
26775;BME280;14362;51.902;7.626;2023-04-22T09:42:17;100070.31;;;18.76;100.00
26775;BME280;14362;51.902;7.626;2023-04-22T09:46:21;100073.22;;;18.90;100.00
26775;BME280;14362;51.902;7.626;2023-04-22T09:50:23;100071.59;;;18.89;100.00
26775;BME280;14362;51.902;7.626;2023-04-22T09:54:25;100067.56;;;18.90;100.00
26775;BME280;14362;51.902;7.626;2023-04-22T09:58:26;100052.72;;;19.07;100.00
26775;BME280;14362;51.902;7.626;2023-04-22T10:02:29;100039.44;;;19.18;100.00
26775;BME280;14362;51.902;7.626;2023-04-22T10:06:31;100044.41;;;19.53;100.00
26775;BME280;14362;51.902;7.626;2023-04-22T10:10:33;100046.47;;;19.69;100.00
26775;BME280;14362;51.902;7.626;2023-04-22T10:14:34;100036.38;;;19.72;99.24
26775;BME280;14362;51.902;7.626;2023-04-22T10:18:38;100029.09;;;19.92;87.27
26775;BME280;14362;51.902;7.626;2023-04-22T10:22:41;100027.53;;;20.05;80.27
26775;BME280;14362;51.902;7.626;2023-04-22T10:26:48;100024.31;;;20.13;85.24
26775;BME280;14362;51.902;7.626;2023-04-22T10:30:50;100026.72;;;20.18;76.33
26775;BME280;14362;51.902;7.626;2023-04-22T10:35:09;100033.19;;;20.19;71.41
26775;BME280;14362;51.902;7.626;2023-04-22T10:39:14;100029.13;;;20.30;74.19
26775;BME280;14362;51.902;7.626;2023-04-22T10:43:18;100024.28;;;20.06;71.59
26775;BME280;14362;51.902;7.626;2023-04-22T10:47:24;100009.69;;;20.39;64.03
26775;BME280;14362;51.902;7.626;2023-04-22T10:51:39;100003.66;;;20.37;74.28
26775;BME280;14362;51.902;7.626;2023-04-22T10:55:48;100010.47;;;20.54;70.77
26775;BME280;14362;51.902;7.626;2023-04-22T10:59:52;100012.06;;;20.65;70.68
26775;BME280;14362;51.902;7.626;2023-04-22T11:04:20;100008.81;;;20.80;66.24
26775;BME280;14362;51.902;7.626;2023-04-22T11:08:26;99994.63;;;20.84;68.46
26775;BME280;14362;51.902;7.626;2023-04-22T11:12:41;99989.25;;;21.10;65.96
26775;BME280;14362;51.902;7.626;2023-04-22T11:16:45;99986.34;;;21.28;65.28
26775;BME280;14362;51.902;7.626;2023-04-22T11:20:47;99985.56;;;21.20;66.57
26775;BME280;14362;51.902;7.626;2023-04-22T11:24:54;99982.63;;;21.38;57.77
26775;BME280;14362;51.902;7.626;2023-04-22T11:28:58;99973.03;;;21.18;56.43
26775;BME280;14362;51.902;7.626;2023-04-22T11:33:00;99971.97;;;20.84;57.01
26775;BME280;14362;51.902;7.626;2023-04-22T11:37:01;99971.13;;;20.94;57.80
26775;BME280;14362;51.902;7.626;2023-04-22T11:41:05;99963.16;;;21.40;59.96
26775;BME280;14362;51.902;7.626;2023-04-22T11:45:07;99963.06;;;21.54;57.51
26775;BME280;14362;51.902;7.626;2023-04-22T11:49:13;99971.13;;;21.62;58.26
26775;BME280;14362;51.902;7.626;2023-04-22T11:53:16;99971.66;;;21.97;55.72
26775;BME280;14362;51.902;7.626;2023-04-22T11:57:19;99968.56;;;21.81;54.68
26775;BME280;14362;51.902;7.626;2023-04-22T12:01:21;99956.75;;;21.90;55.26
26775;BME280;14362;51.902;7.626;2023-04-22T12:05:36;99956.78;;;21.83;56.90
26775;BME280;14362;51.902;7.626;2023-04-22T12:09:38;99956.25;;;21.98;53.87
26775;BME280;14362;51.902;7.626;2023-04-22T12:13:42;99960.66;;;22.03;56.15
26775;BME280;14362;51.902;7.626;2023-04-22T12:17:45;99952.34;;;22.26;55.75
26775;BME280;14362;51.902;7.626;2023-04-22T12:21:46;99953.56;;;22.25;54.77
26775;BME280;14362;51.902;7.626;2023-04-22T12:25:48;99956.31;;;22.35;54.88
26775;BME280;14362;51.902;7.626;2023-04-22T12:29:53;99952.59;;;22.42;54.79
26775;BME280;14362;51.902;7.626;2023-04-22T12:33:54;99959.00;;;22.49;54.99
26775;BME280;14362;51.902;7.626;2023-04-22T12:37:56;99961.00;;;22.52;54.52
26775;BME280;14362;51.902;7.626;2023-04-22T12:41:57;99958.00;;;22.26;54.57
26775;BME280;14362;51.902;7.626;2023-04-22T12:46:00;99963.16;;;21.97;56.49
26775;BME280;14362;51.902;7.626;2023-04-22T12:50:02;99960.56;;;21.70;56.79
26775;BME280;14362;51.902;7.626;2023-04-22T12:54:05;99960.19;;;21.64;58.35
26775;BME280;14362;51.902;7.626;2023-04-22T12:58:07;99955.25;;;21.71;60.73
26775;BME280;14362;51.902;7.626;2023-04-22T13:02:09;99960.50;;;21.76;59.92
26775;BME280;14362;51.902;7.626;2023-04-22T13:06:11;99956.47;;;21.70;58.45
26775;BME280;14362;51.902;7.626;2023-04-22T13:10:14;99951.31;;;22.06;59.01
26775;BME280;14362;51.902;7.626;2023-04-22T13:14:16;99960.84;;;22.26;59.63
26775;BME280;14362;51.902;7.626;2023-04-22T13:18:19;99959.44;;;22.07;58.50
26775;BME280;14362;51.902;7.626;2023-04-22T13:22:21;99947.06;;;21.84;55.14
26775;BME280;14362;51.902;7.626;2023-04-22T13:26:23;99953.75;;;21.60;55.77
26775;BME280;14362;51.902;7.626;2023-04-22T13:30:25;99947.59;;;21.69;58.07
26775;BME280;14362;51.902;7.626;2023-04-22T13:34:27;99943.78;;;21.89;57.92
26775;BME280;14362;51.902;7.626;2023-04-22T13:38:29;99938.44;;;21.94;56.76
26775;BME280;14362;51.902;7.626;2023-04-22T13:42:30;99940.25;;;21.74;57.85
26775;BME280;14362;51.902;7.626;2023-04-22T13:46:32;99939.56;;;21.57;58.07
26775;BME280;14362;51.902;7.626;2023-04-22T13:50:34;99932.47;;;21.24;58.42
26775;BME280;14362;51.902;7.626;2023-04-22T13:54:36;99935.25;;;21.35;59.62
26775;BME280;14362;51.902;7.626;2023-04-22T13:58:37;99933.25;;;21.35;59.68
26775;BME280;14362;51.902;7.626;2023-04-22T14:02:39;99931.38;;;21.08;61.38
26775;BME280;14362;51.902;7.626;2023-04-22T14:06:42;99918.34;;;21.21;65.45
26775;BME280;14362;51.902;7.626;2023-04-22T14:10:43;99915.78;;;21.91;65.98
26775;BME280;14362;51.902;7.626;2023-04-22T14:14:45;99909.69;;;22.66;60.42
26775;BME280;14362;51.902;7.626;2023-04-22T14:18:46;99909.97;;;23.08;57.45
26775;BME280;14362;51.902;7.626;2023-04-22T14:22:49;99910.72;;;22.49;55.56
26775;BME280;14362;51.902;7.626;2023-04-22T14:26:50;99904.78;;;22.37;56.63
26775;BME280;14362;51.902;7.626;2023-04-22T14:30:52;99901.38;;;22.12;57.01
26775;BME280;14362;51.902;7.626;2023-04-22T14:34:54;99902.44;;;21.88;58.35
26775;BME280;14362;51.902;7.626;2023-04-22T14:38:57;99908.66;;;21.72;58.27
26775;BME280;14362;51.902;7.626;2023-04-22T14:43:00;99905.16;;;21.51;60.18
26775;BME280;14362;51.902;7.626;2023-04-22T14:47:01;99899.00;;;21.67;61.16
26775;BME280;14362;51.902;7.626;2023-04-22T14:51:03;99903.06;;;21.66;61.71
26775;BME280;14362;51.902;7.626;2023-04-22T14:55:07;99906.28;;;21.64;61.46
26775;BME280;14362;51.902;7.626;2023-04-22T14:59:08;99907.25;;;21.44;61.46
26775;BME280;14362;51.902;7.626;2023-04-22T15:03:09;99904.81;;;21.42;62.13
26775;BME280;14362;51.902;7.626;2023-04-22T15:07:11;99918.28;;;21.31;62.82
26775;BME280;14362;51.902;7.626;2023-04-22T15:11:14;99924.00;;;21.21;63.87
26775;BME280;14362;51.902;7.626;2023-04-22T15:15:15;99925.66;;;21.15;64.43
26775;BME280;14362;51.902;7.626;2023-04-22T15:19:17;99925.38;;;20.95;65.89
26775;BME280;14362;51.902;7.626;2023-04-22T15:23:18;99934.28;;;20.97;67.75
26775;BME280;14362;51.902;7.626;2023-04-22T15:27:21;99953.41;;;20.62;71.61
26775;BME280;14362;51.902;7.626;2023-04-22T15:31:23;99962.38;;;20.43;76.64
26775;BME280;14362;51.902;7.626;2023-04-22T15:35:25;99981.84;;;20.17;87.03
26775;BME280;14362;51.902;7.626;2023-04-22T15:39:27;99993.13;;;19.71;93.24
26775;BME280;14362;51.902;7.626;2023-04-22T15:43:29;99995.91;;;19.37;96.78
26775;BME280;14362;51.902;7.626;2023-04-22T15:47:31;100000.31;;;19.13;100.00
26775;BME280;14362;51.902;7.626;2023-04-22T15:51:33;99992.09;;;18.91;100.00
26775;BME280;14362;51.902;7.626;2023-04-22T15:55:35;100008.94;;;18.70;100.00
26775;BME280;14362;51.902;7.626;2023-04-22T15:59:38;100014.09;;;18.51;100.00
26775;BME280;14362;51.902;7.626;2023-04-22T16:03:40;100028.09;;;18.33;100.00
26775;BME280;14362;51.902;7.626;2023-04-22T16:07:41;100021.09;;;18.17;100.00
26775;BME280;14362;51.902;7.626;2023-04-22T16:11:42;100022.50;;;17.93;100.00
26775;BME280;14362;51.902;7.626;2023-04-22T16:15:45;100013.50;;;17.77;100.00
26775;BME280;14362;51.902;7.626;2023-04-22T16:19:47;100015.91;;;17.75;100.00
26775;BME280;14362;51.902;7.626;2023-04-22T16:23:49;100022.69;;;17.67;100.00
26775;BME280;14362;51.902;7.626;2023-04-22T16:27:50;100011.31;;;17.57;100.00
26775;BME280;14362;51.902;7.626;2023-04-22T16:31:53;100005.69;;;17.57;100.00
26775;BME280;14362;51.902;7.626;2023-04-22T16:35:54;100003.22;;;17.55;100.00
26775;BME280;14362;51.902;7.626;2023-04-22T16:39:56;99993.56;;;17.53;100.00
26775;BME280;14362;51.902;7.626;2023-04-22T16:43:57;99989.97;;;17.56;100.00
26775;BME280;14362;51.902;7.626;2023-04-22T16:48:00;99983.84;;;17.47;100.00
26775;BME280;14362;51.902;7.626;2023-04-22T16:52:01;99981.84;;;17.48;100.00
26775;BME280;14362;51.902;7.626;2023-04-22T16:56:03;99983.03;;;17.47;100.00
26775;BME280;14362;51.902;7.626;2023-04-22T17:00:06;99981.34;;;17.39;100.00
26775;BME280;14362;51.902;7.626;2023-04-22T17:04:09;99973.19;;;17.30;100.00
26775;BME280;14362;51.902;7.626;2023-04-22T17:08:11;99982.38;;;17.27;100.00
26775;BME280;14362;51.902;7.626;2023-04-22T17:12:12;99978.63;;;17.13;100.00
26775;BME280;14362;51.902;7.626;2023-04-22T17:16:14;99986.63;;;17.07;100.00
26775;BME280;14362;51.902;7.626;2023-04-22T17:20:16;99974.13;;;17.05;100.00
26775;BME280;14362;51.902;7.626;2023-04-22T17:24:18;99975.69;;;17.02;100.00
26775;BME280;14362;51.902;7.626;2023-04-22T17:28:19;99973.56;;;16.92;100.00
26775;BME280;14362;51.902;7.626;2023-04-22T17:32:21;99981.97;;;16.89;100.00
26775;BME280;14362;51.902;7.626;2023-04-22T17:36:23;99979.91;;;16.82;100.00
26775;BME280;14362;51.902;7.626;2023-04-22T17:40:26;99981.06;;;16.78;100.00
26775;BME280;14362;51.902;7.626;2023-04-22T17:44:28;99984.69;;;16.82;100.00
26775;BME280;14362;51.902;7.626;2023-04-22T17:48:30;99983.03;;;16.77;100.00
26775;BME280;14362;51.902;7.626;2023-04-22T17:52:32;99989.06;;;16.76;100.00
26775;BME280;14362;51.902;7.626;2023-04-22T17:56:34;99988.19;;;16.72;100.00
26775;BME280;14362;51.902;7.626;2023-04-22T18:00:36;99989.78;;;16.69;100.00
26775;BME280;14362;51.902;7.626;2023-04-22T18:04:37;99995.00;;;16.67;100.00
26775;BME280;14362;51.902;7.626;2023-04-22T18:08:40;100009.41;;;16.66;100.00
26775;BME280;14362;51.902;7.626;2023-04-22T18:12:42;100009.38;;;16.62;100.00
26775;BME280;14362;51.902;7.626;2023-04-22T18:16:43;100021.34;;;16.56;100.00
26775;BME280;14362;51.902;7.626;2023-04-22T18:20:45;100020.38;;;16.45;100.00
26775;BME280;14362;51.902;7.626;2023-04-22T18:24:47;100029.50;;;16.35;100.00
26775;BME280;14362;51.902;7.626;2023-04-22T18:28:49;100040.59;;;16.28;100.00
26775;BME280;14362;51.902;7.626;2023-04-22T18:32:50;100042.06;;;16.19;100.00
26775;BME280;14362;51.902;7.626;2023-04-22T18:36:52;100047.84;;;16.03;100.00
26775;BME280;14362;51.902;7.626;2023-04-22T18:40:55;100054.97;;;15.97;100.00
26775;BME280;14362;51.902;7.626;2023-04-22T18:44:56;100059.56;;;15.86;100.00
26775;BME280;14362;51.902;7.626;2023-04-22T18:48:58;100066.13;;;15.71;100.00
26775;BME280;14362;51.902;7.626;2023-04-22T18:52:59;100072.41;;;15.61;100.00
26775;BME280;14362;51.902;7.626;2023-04-22T18:57:02;100077.44;;;15.52;100.00
26775;BME280;14362;51.902;7.626;2023-04-22T19:01:03;100067.25;;;15.44;100.00
26775;BME280;14362;51.902;7.626;2023-04-22T19:05:06;100089.63;;;15.41;100.00
26775;BME280;14362;51.902;7.626;2023-04-22T19:09:07;100085.16;;;15.37;100.00
26775;BME280;14362;51.902;7.626;2023-04-22T19:13:11;100092.31;;;15.34;100.00
26775;BME280;14362;51.902;7.626;2023-04-22T19:17:12;100096.69;;;15.32;100.00
26775;BME280;14362;51.902;7.626;2023-04-22T19:21:14;100082.47;;;15.25;100.00
26775;BME280;14362;51.902;7.626;2023-04-22T19:25:15;100085.59;;;15.20;100.00
26775;BME280;14362;51.902;7.626;2023-04-22T19:29:19;100081.81;;;15.12;100.00
26775;BME280;14362;51.902;7.626;2023-04-22T19:33:20;100090.19;;;15.09;100.00
26775;BME280;14362;51.902;7.626;2023-04-22T19:37:22;100086.47;;;15.05;100.00
26775;BME280;14362;51.902;7.626;2023-04-22T19:41:23;100084.47;;;15.05;100.00
26775;BME280;14362;51.902;7.626;2023-04-22T19:45:26;100082.94;;;15.08;100.00
26775;BME280;14362;51.902;7.626;2023-04-22T19:49:29;100077.97;;;15.01;100.00
26775;BME280;14362;51.902;7.626;2023-04-22T19:53:32;100079.06;;;14.97;100.00
26775;BME280;14362;51.902;7.626;2023-04-22T19:57:36;100070.94;;;14.92;100.00
26775;BME280;14362;51.902;7.626;2023-04-22T20:01:39;100077.84;;;14.94;100.00
26775;BME280;14362;51.902;7.626;2023-04-22T20:05:42;100079.75;;;14.90;100.00
26775;BME280;14362;51.902;7.626;2023-04-22T20:09:44;100072.06;;;14.87;100.00
26775;BME280;14362;51.902;7.626;2023-04-22T20:13:47;100077.31;;;14.89;100.00
26775;BME280;14362;51.902;7.626;2023-04-22T20:17:51;100078.06;;;14.86;100.00
26775;BME280;14362;51.902;7.626;2023-04-22T20:21:54;100074.81;;;14.84;100.00
26775;BME280;14362;51.902;7.626;2023-04-22T20:25:56;100073.91;;;14.80;100.00
26775;BME280;14362;51.902;7.626;2023-04-22T20:30:00;100067.06;;;14.77;100.00
26775;BME280;14362;51.902;7.626;2023-04-22T20:34:03;100080.25;;;14.77;100.00
26775;BME280;14362;51.902;7.626;2023-04-22T20:38:05;100073.91;;;14.80;100.00
26775;BME280;14362;51.902;7.626;2023-04-22T20:42:08;100077.91;;;14.79;100.00
26775;BME280;14362;51.902;7.626;2023-04-22T20:46:10;100081.75;;;14.71;100.00
26775;BME280;14362;51.902;7.626;2023-04-22T20:50:13;100098.91;;;14.69;100.00
26775;BME280;14362;51.902;7.626;2023-04-22T20:54:16;100098.22;;;14.57;100.00
26775;BME280;14362;51.902;7.626;2023-04-22T20:58:17;100091.31;;;14.35;100.00